Time;durP1;ratioP1;P1;durP2;ratioP2;P2;SDS_P1;SDS_P2;PMS_P1;PMS_P2;Temp;Humidity;BMP_temperature;BMP_pressure;BME280_temperature;BME280_humidity;BME280_pressure;Samples;Min_cycle;Max_cycle;Signal;HPM_P1;HPM_P2
2021/03/19 00:02:11;;;;;;;9.27;2.88;;;3.70;91.70;;;;;;5010497;28;20397;-74
2021/03/19 00:04:36;;;;;;;8.05;2.70;;;3.70;91.80;;;;;;5010468;28;20068;-75
2021/03/19 00:07:02;;;;;;;11.80;3.22;;;3.60;91.80;;;;;;5011835;28;20026;-74
2021/03/19 00:09:27;;;;;;;9.63;3.28;;;3.50;91.90;;;;;;5009594;28;20041;-74
2021/03/19 00:11:53;;;;;;;9.30;3.58;;;3.40;92.00;;;;;;5008935;28;20031;-75
2021/03/19 00:14:18;;;;;;;10.77;3.20;;;3.30;92.10;;;;;;5010226;28;20057;-75
2021/03/19 00:16:44;;;;;;;13.18;4.22;;;3.30;92.20;;;;;;5012673;28;20022;-75
2021/03/19 00:19:10;;;;;;;6.50;2.92;;;3.20;92.30;;;;;;5011081;28;20030;-75
2021/03/19 00:21:36;;;;;;;8.88;3.33;;;3.20;92.30;;;;;;5013363;28;20030;-75
2021/03/19 00:24:02;;;;;;;8.70;2.70;;;3.10;92.40;;;;;;5012074;28;20111;-74
2021/03/19 00:26:28;;;;;;;10.57;3.38;;;3.10;92.40;;;;;;5013095;28;20512;-75
2021/03/19 00:28:53;;;;;;;6.57;3.60;;;3.10;92.50;;;;;;5010175;28;20036;-75
2021/03/19 00:31:19;;;;;;;8.38;2.92;;;3.00;92.50;;;;;;4994862;28;20394;-75
2021/03/19 00:33:45;;;;;;;7.72;2.90;;;3.00;92.60;;;;;;4987908;28;20038;-74
2021/03/19 00:36:10;;;;;;;6.75;3.30;;;2.90;92.50;;;;;;5013415;28;20018;-75
2021/03/19 00:38:36;;;;;;;8.38;3.30;;;2.90;92.70;;;;;;4993958;28;20429;-75
2021/03/19 00:41:02;;;;;;;10.73;3.88;;;2.80;92.70;;;;;;5011856;28;20104;-75
2021/03/19 00:43:27;;;;;;;8.48;3.42;;;2.80;93.00;;;;;;5014778;28;20037;-75
2021/03/19 00:45:53;;;;;;;6.28;2.95;;;2.70;92.70;;;;;;5011288;28;20084;-75
2021/03/19 00:48:20;;;;;;;10.05;4.13;;;2.70;92.80;;;;;;5002796;28;20048;-74
2021/03/19 00:50:45;;;;;;;6.70;3.70;;;2.70;92.80;;;;;;5009468;28;20494;-75
2021/03/19 00:53:11;;;;;;;5.85;3.55;;;2.60;92.90;;;;;;5009728;28;20074;-75
2021/03/19 00:55:37;;;;;;;9.32;4.13;;;2.60;92.90;;;;;;5007362;28;20022;-75
2021/03/19 00:58:03;;;;;;;8.55;4.18;;;2.60;93.00;;;;;;5008946;28;20041;-75
2021/03/19 01:00:31;;;;;;;7.25;3.55;;;2.60;93.10;;;;;;5009252;28;20036;-75
2021/03/19 01:02:57;;;;;;;8.68;3.80;;;2.50;93.00;;;;;;5007888;28;20065;-75
2021/03/19 01:05:29;;;;;;;6.50;3.28;;;2.50;93.10;;;;;;5010694;28;20447;-74
2021/03/19 01:07:55;;;;;;;5.95;3.25;;;2.40;93.10;;;;;;4993438;28;20147;-75
2021/03/19 01:10:31;;;;;;;6.53;3.42;;;2.40;93.10;;;;;;5008567;28;20062;-75
2021/03/19 01:12:57;;;;;;;7.78;3.45;;;2.40;93.20;;;;;;5008140;28;20030;-74
2021/03/19 01:15:24;;;;;;;9.68;3.22;;;2.40;93.20;;;;;;5008729;28;20420;-75
2021/03/19 01:17:52;;;;;;;6.53;3.47;;;2.30;93.10;;;;;;5007044;28;20022;-75
2021/03/19 01:20:18;;;;;;;5.70;3.35;;;2.30;93.20;;;;;;5013107;28;20026;-75
2021/03/19 01:22:44;;;;;;;8.20;3.95;;;2.20;93.10;;;;;;5010950;28;20433;-75
2021/03/19 01:25:12;;;;;;;6.10;3.88;;;2.20;93.20;;;;;;5009919;28;20022;-75
2021/03/19 01:27:38;;;;;;;9.43;4.40;;;2.10;93.20;;;;;;5008562;28;20068;-75
2021/03/19 01:30:07;;;;;;;7.38;3.83;;;2.00;93.20;;;;;;5009439;28;20478;-75
2021/03/19 01:32:32;;;;;;;6.18;3.40;;;2.00;93.20;;;;;;4991423;28;20120;-75
2021/03/19 01:34:58;;;;;;;8.57;4.65;;;1.90;93.30;;;;;;5009493;28;20141;-74
2021/03/19 01:37:23;;;;;;;7.38;4.43;;;1.90;93.40;;;;;;5014081;28;21032;-74
2021/03/19 01:39:49;;;;;;;6.35;4.25;;;1.90;93.40;;;;;;5010712;28;20106;-75
2021/03/19 01:42:15;;;;;;;9.93;5.07;;;1.90;93.40;;;;;;5006630;28;20022;-76
2021/03/19 01:45:26;;;;;;;12.15;5.20;;;1.80;93.40;;;;;;5009298;28;20030;-75
2021/03/19 01:48:30;;;;;;;10.93;5.30;;;1.80;93.40;;;;;;5005866;28;20022;-75
2021/03/19 01:51:33;;;;;;;12.65;5.75;;;1.80;93.50;;;;;;5008670;28;20029;-75
2021/03/19 01:54:36;;;;;;;9.90;5.10;;;1.80;93.50;;;;;;5007913;28;20607;-75
2021/03/19 01:57:39;;;;;;;9.60;5.10;;;1.80;93.60;;;;;;5007562;28;20034;-75
2021/03/19 02:00:42;;;;;;;9.60;5.53;;;1.70;93.60;;;;;;5010195;28;20033;-75
2021/03/19 02:03:45;;;;;;;10.38;6.03;;;1.70;93.60;;;;;;5010554;28;20025;-75
2021/03/19 02:06:48;;;;;;;9.00;5.60;;;1.60;93.60;;;;;;5008890;28;20485;-75
2021/03/19 02:09:52;;;;;;;13.85;6.43;;;1.60;93.70;;;;;;5011796;28;20048;-76
2021/03/19 02:12:55;;;;;;;12.60;5.63;;;1.60;93.70;;;;;;4989024;28;20056;-75
2021/03/19 02:15:58;;;;;;;11.00;6.60;;;1.50;93.70;;;;;;5012902;28;20052;-76
2021/03/19 02:19:01;;;;;;;13.15;7.32;;;1.50;93.80;;;;;;5013694;28;20141;-75
2021/03/19 02:22:04;;;;;;;18.25;7.90;;;1.50;93.80;;;;;;5012140;28;20053;-76
2021/03/19 02:25:07;;;;;;;13.63;7.22;;;1.50;93.90;;;;;;5008878;28;20033;-75
2021/03/19 02:28:10;;;;;;;12.02;6.78;;;1.40;93.90;;;;;;5013169;28;20092;-75
2021/03/19 02:31:10;;;;;;;14.38;8.18;;;1.40;94.00;;;;;;5014286;28;20096;-74
2021/03/19 02:33:38;;;;;;;12.40;6.90;;;1.30;94.00;;;;;;5010559;28;20030;-74
2021/03/19 02:36:05;;;;;;;14.55;7.68;;;1.20;94.00;;;;;;5012319;28;20113;-74
2021/03/19 02:38:30;;;;;;;10.50;6.75;;;1.20;94.10;;;;;;5013396;28;20084;-74
2021/03/19 02:40:56;;;;;;;13.57;7.30;;;1.20;94.10;;;;;;5013351;28;20871;-74
2021/03/19 02:43:24;;;;;;;13.90;8.05;;;1.20;94.20;;;;;;5012445;28;20030;-74
2021/03/19 02:45:50;;;;;;;13.98;7.45;;;1.20;94.20;;;;;;5011178;28;20617;-74
2021/03/19 02:48:16;;;;;;;13.27;7.40;;;1.10;94.30;;;;;;4995536;28;20038;-74
2021/03/19 02:50:42;;;;;;;16.73;8.63;;;1.10;94.30;;;;;;5014989;28;20466;-74
2021/03/19 02:53:19;;;;;;;13.63;7.38;;;1.10;94.40;;;;;;5013883;28;20486;-74
2021/03/19 02:55:45;;;;;;;17.83;8.48;;;1.10;94.40;;;;;;5009468;28;20026;-74
2021/03/19 02:58:11;;;;;;;16.05;7.82;;;1.00;94.40;;;;;;5010916;28;20030;-74
2021/03/19 03:00:36;;;;;;;14.63;8.60;;;1.00;94.40;;;;;;5012993;28;20030;-75
2021/03/19 03:03:02;;;;;;;17.25;8.52;;;1.00;94.40;;;;;;5010517;28;20021;-74
2021/03/19 03:05:28;;;;;;;19.20;8.35;;;0.90;94.40;;;;;;5011002;28;20036;-74
2021/03/19 03:07:54;;;;;;;16.45;8.48;;;0.90;94.50;;;;;;5013442;28;20058;-74
2021/03/19 03:10:20;;;;;;;16.65;9.23;;;0.90;94.60;;;;;;5007877;28;20101;-74
2021/03/19 03:12:46;;;;;;;15.13;8.40;;;0.90;94.50;;;;;;5014250;28;20079;-74
2021/03/19 03:15:14;;;;;;;15.77;8.57;;;0.90;94.60;;;;;;5011668;28;20077;-75
2021/03/19 03:17:40;;;;;;;15.60;8.40;;;0.80;94.60;;;;;;5012525;28;20041;-75
2021/03/19 03:20:09;;;;;;;15.27;8.13;;;0.80;94.60;;;;;;4988433;28;20388;-75
2021/03/19 03:22:34;;;;;;;17.38;8.50;;;0.80;94.70;;;;;;5009698;28;20030;-76
2021/03/19 03:25:01;;;;;;;16.23;9.40;;;0.80;94.80;;;;;;5010174;28;20088;-75
2021/03/19 03:27:26;;;;;;;16.23;9.18;;;0.70;94.70;;;;;;5013621;28;20087;-75
2021/03/19 03:29:52;;;;;;;21.45;9.50;;;0.80;94.70;;;;;;5008244;28;20988;-75
2021/03/19 03:32:18;;;;;;;17.70;9.35;;;0.70;94.70;;;;;;5010175;28;20080;-74
2021/03/19 03:34:43;;;;;;;16.08;7.65;;;0.70;94.80;;;;;;5010120;28;20453;-74
2021/03/19 03:37:10;;;;;;;18.67;9.52;;;0.70;94.80;;;;;;5012079;28;20106;-74
2021/03/19 03:39:36;;;;;;;17.42;9.27;;;0.70;94.80;;;;;;5011207;28;20034;-74
2021/03/19 03:42:04;;;;;;;12.70;7.93;;;0.70;94.80;;;;;;5011988;28;20037;-74
2021/03/19 03:44:30;;;;;;;17.08;9.32;;;0.60;94.80;;;;;;5011497;28;20097;-76
2021/03/19 03:46:56;;;;;;;18.00;8.85;;;0.60;94.80;;;;;;5009310;28;20015;-73
2021/03/19 03:49:23;;;;;;;19.23;9.35;;;0.60;95.20;;;;;;5010932;28;20026;-75
2021/03/19 03:51:49;;;;;;;14.63;8.60;;;0.60;94.90;;;;;;5008453;28;20152;-75
2021/03/19 03:54:15;;;;;;;15.98;7.47;;;0.50;94.80;;;;;;5009315;28;20988;-75
2021/03/19 03:56:41;;;;;;;17.02;8.88;;;0.50;94.90;;;;;;5012652;28;20029;-75
2021/03/19 03:59:06;;;;;;;20.23;9.35;;;0.50;95.00;;;;;;5011103;28;20203;-75
2021/03/19 04:01:42;;;;;;;19.50;9.43;;;0.50;94.90;;;;;;5009004;28;20026;-75
2021/03/19 04:04:11;;;;;;;17.67;9.38;;;0.50;94.90;;;;;;5009295;28;20033;-75
2021/03/19 04:06:37;;;;;;;17.40;9.02;;;0.50;95.00;;;;;;5012471;28;20027;-76
2021/03/19 04:09:03;;;;;;;16.77;8.77;;;0.40;94.90;;;;;;5013306;28;20050;-75
2021/03/19 04:11:30;;;;;;;18.27;8.88;;;0.40;95.00;;;;;;5009685;28;20047;-76
2021/03/19 04:13:56;;;;;;;15.25;9.35;;;0.40;95.00;;;;;;5011993;28;20173;-75
2021/03/19 04:16:21;;;;;;;15.98;8.52;;;0.40;95.00;;;;;;5010522;28;20101;-75
2021/03/19 04:18:47;;;;;;;19.63;9.40;;;0.40;95.00;;;;;;5011600;28;20045;-75
2021/03/19 04:21:13;;;;;;;15.10;8.43;;;0.40;95.10;;;;;;5010180;28;20029;-74
2021/03/19 04:23:42;;;;;;;20.20;9.30;;;0.30;95.10;;;;;;5010762;28;20029;-74
2021/03/19 04:26:21;;;;;;;16.85;8.98;;;0.40;95.10;;;;;;4993388;28;20026;-74
2021/03/19 04:28:47;;;;;;;19.42;9.05;;;0.30;95.10;;;;;;5011870;28;20029;-74
2021/03/19 04:31:12;;;;;;;17.63;9.15;;;0.30;95.10;;;;;;5006242;28;20497;-74
2021/03/19 04:33:38;;;;;;;17.02;8.02;;;0.30;95.10;;;;;;5007907;28;20053;-74
2021/03/19 04:36:36;;;;;;;18.58;8.52;;;0.30;95.20;;;;;;5007476;28;20022;-74
2021/03/19 04:39:05;;;;;;;14.40;8.32;;;0.40;95.20;;;;;;5011545;28;20482;-74
2021/03/19 04:41:31;;;;;;;21.25;9.15;;;0.30;95.10;;;;;;5006645;28;20501;-74
2021/03/19 04:43:58;;;;;;;16.35;7.70;;;0.30;95.10;;;;;;5008421;28;20026;-74
2021/03/19 04:46:23;;;;;;;17.40;7.75;;;0.30;95.10;;;;;;5009199;28;20026;-74
2021/03/19 04:48:49;;;;;;;21.75;9.73;;;0.30;95.10;;;;;;5004376;28;20392;-74
2021/03/19 04:51:15;;;;;;;21.15;8.65;;;0.30;95.20;;;;;;5008085;28;20037;-75
2021/03/19 04:53:40;;;;;;;15.63;8.02;;;0.30;95.20;;;;;;5005959;28;20033;-74
2021/03/19 04:56:06;;;;;;;16.88;8.10;;;0.30;95.20;;;;;;5007063;28;20022;-74
2021/03/19 04:58:31;;;;;;;22.50;8.80;;;0.30;95.20;;;;;;5011392;28;20026;-75
2021/03/19 05:00:57;;;;;;;14.57;7.97;;;0.30;95.20;;;;;;5004717;28;20068;-75
2021/03/19 05:03:22;;;;;;;16.40;8.13;;;0.20;95.10;;;;;;5007760;28;20030;-75
2021/03/19 05:05:48;;;;;;;12.75;7.13;;;0.20;95.20;;;;;;5009027;28;20121;-75
2021/03/19 05:08:13;;;;;;;17.50;8.73;;;0.20;95.20;;;;;;5009715;28;20520;-74
2021/03/19 05:10:40;;;;;;;19.23;8.18;;;0.20;95.20;;;;;;5008152;28;20026;-75
2021/03/19 05:13:06;;;;;;;14.98;6.85;;;0.20;95.20;;;;;;5011305;28;20018;-75
2021/03/19 05:15:33;;;;;;;16.10;7.63;;;0.20;95.20;;;;;;5016527;28;20025;-74
2021/03/19 05:17:59;;;;;;;18.60;8.38;;;0.20;95.20;;;;;;5014589;28;20057;-75
2021/03/19 05:20:26;;;;;;;17.10;7.82;;;0.20;95.30;;;;;;5012765;28;20052;-75
2021/03/19 05:22:52;;;;;;;16.88;8.00;;;0.20;95.20;;;;;;5009183;28;20028;-75
2021/03/19 05:25:21;;;;;;;19.20;7.90;;;0.20;95.20;;;;;;5012796;28;20026;-75
2021/03/19 05:27:47;;;;;;;13.27;6.50;;;0.20;95.20;;;;;;5012278;28;20022;-74
2021/03/19 05:30:14;;;;;;;15.63;7.15;;;0.20;95.20;;;;;;5012000;28;20037;-75
2021/03/19 05:32:40;;;;;;;14.80;6.85;;;0.20;95.30;;;;;;5011386;28;20030;-75
2021/03/19 05:35:07;;;;;;;19.52;7.00;;;0.10;95.20;;;;;;5010662;28;20045;-75
2021/03/19 05:37:33;;;;;;;17.92;7.68;;;0.10;95.20;;;;;;5006715;28;20026;-75
2021/03/19 05:39:59;;;;;;;19.50;7.28;;;0.10;95.30;;;;;;5002801;28;20512;-75
2021/03/19 05:42:28;;;;;;;16.52;7.43;;;0.10;95.20;;;;;;5010484;28;20041;-75
2021/03/19 05:45:15;;;;;;;15.35;6.65;;;0.00;95.30;;;;;;5011275;28;20037;-76
2021/03/19 05:47:41;;;;;;;15.93;7.20;;;0.10;95.30;;;;;;4995511;28;20049;-74
2021/03/19 05:50:22;;;;;;;16.98;6.57;;;0.00;95.30;;;;;;5010459;28;20026;-75
2021/03/19 05:52:49;;;;;;;16.98;7.38;;;0.00;95.30;;;;;;5011461;28;20014;-74
2021/03/19 05:55:19;;;;;;;16.90;7.05;;;0.00;95.30;;;;;;5011048;28;20087;-74
2021/03/19 05:57:45;;;;;;;17.23;6.80;;;0.00;95.30;;;;;;5010097;28;20032;-74
2021/03/19 06:00:21;;;;;;;15.43;6.72;;;0.00;95.30;;;;;;5005060;28;20990;-74
2021/03/19 06:02:48;;;;;;;12.88;7.13;;;0.00;95.30;;;;;;5003656;28;20030;-75
2021/03/19 06:05:25;;;;;;;14.85;7.07;;;0.00;95.30;;;;;;5006257;28;20030;-73
2021/03/19 06:08:01;;;;;;;13.10;6.25;;;0.10;95.40;;;;;;4999825;28;20117;-73
2021/03/19 06:10:34;;;;;;;16.88;6.68;;;0.10;95.40;;;;;;5001488;28;20044;-74
2021/03/19 06:13:24;;;;;;;17.73;6.25;;;0.10;95.40;;;;;;4994359;28;20022;-76
2021/03/19 06:15:58;;;;;;;16.58;7.35;;;0.10;95.30;;;;;;5013090;28;20026;-76
2021/03/19 06:18:46;;;;;;;16.05;6.85;;;0.10;95.40;;;;;;4995464;28;20494;-75
2021/03/19 06:21:20;;;;;;;15.32;6.32;;;0.10;95.30;;;;;;5010282;28;20092;-74
2021/03/19 06:24:05;;;;;;;15.23;6.53;;;0.10;95.30;;;;;;5001846;28;20104;-75
2021/03/19 06:26:40;;;;;;;14.57;6.88;;;0.20;95.40;;;;;;5010170;28;20386;-75
2021/03/19 06:29:13;;;;;;;15.18;6.22;;;0.20;95.30;;;;;;5007067;28;20030;-76
2021/03/19 06:31:40;;;;;;;16.80;7.05;;;0.20;95.30;;;;;;5008454;28;20026;-76
2021/03/19 06:34:18;;;;;;;12.98;6.03;;;0.30;95.30;;;;;;4999876;28;20097;-73
2021/03/19 06:36:58;;;;;;;18.00;5.80;;;0.30;95.30;;;;;;5009000;28;20371;-73
2021/03/19 06:39:32;;;;;;;11.48;5.30;;;0.40;95.30;;;;;;5007652;28;20026;-74
2021/03/19 06:42:21;;;;;;;11.68;5.68;;;0.40;95.30;;;;;;5012170;28;20067;-75
2021/03/19 06:45:05;;;;;;;12.38;5.50;;;0.40;95.30;;;;;;5001474;28;20041;-75
2021/03/19 06:47:41;;;;;;;12.48;5.90;;;0.50;95.30;;;;;;4986144;28;20026;-75
2021/03/19 06:50:30;;;;;;;12.50;5.50;;;0.60;95.30;;;;;;4998186;28;20029;-75
2021/03/19 06:53:21;;;;;;;13.68;6.13;;;0.60;95.20;;;;;;5001383;28;20362;-75
2021/03/19 06:55:52;;;;;;;14.15;6.60;;;0.70;95.20;;;;;;5007947;28;20105;-75
2021/03/19 06:58:40;;;;;;;9.23;5.38;;;0.80;95.20;;;;;;5014947;28;20036;-75
2021/03/19 07:01:25;;;;;;;12.55;6.22;;;0.90;95.10;;;;;;5010884;28;20072;-76
2021/03/19 07:04:13;;;;;;;13.10;5.85;;;1.00;95.10;;;;;;5013502;28;20512;-73
2021/03/19 07:07:09;;;;;;;16.70;5.65;;;1.10;95.00;;;;;;5015104;28;20026;-75
2021/03/19 07:09:52;;;;;;;11.88;6.38;;;1.20;94.90;;;;;;5009969;28;20068;-75
2021/03/19 07:12:27;;;;;;;11.38;6.20;;;1.30;94.90;;;;;;5019556;28;20469;-75
2021/03/19 07:15:18;;;;;;;13.10;5.18;;;1.40;94.80;;;;;;5013023;28;20087;-75
2021/03/19 07:17:51;;;;;;;17.88;5.90;;;1.50;94.70;;;;;;5012183;28;20025;-75
2021/03/19 07:20:40;;;;;;;12.90;6.03;;;1.50;94.70;;;;;;5010075;28;20076;-74
2021/03/19 07:23:24;;;;;;;11.50;5.72;;;1.60;94.60;;;;;;5014225;28;20026;-75
2021/03/19 07:26:02;;;;;;;16.20;6.28;;;1.70;94.60;;;;;;5020458;28;20021;-74
2021/03/19 07:28:50;;;;;;;14.95;6.10;;;1.80;94.50;;;;;;5020201;28;20486;-74
2021/03/19 07:31:25;;;;;;;9.93;5.80;;;1.90;94.70;;;;;;5013864;28;20029;-74
2021/03/19 07:34:20;;;;;;;15.77;6.35;;;2.00;94.30;;;;;;5014573;28;20076;-74
2021/03/19 07:36:53;;;;;;;14.23;5.45;;;2.10;94.30;;;;;;4976838;28;20105;-75
2021/03/19 07:39:37;;;;;;;14.45;7.10;;;2.20;94.30;;;;;;5014185;28;20065;-74
2021/03/19 07:42:45;;;;;;;9.60;4.85;;;2.30;94.10;;;;;;5008271;28;20053;-74
2021/03/19 07:45:32;;;;;;;10.35;5.45;;;2.50;94.10;;;;;;5014086;28;20026;-74
2021/03/19 07:48:25;;;;;;;14.43;5.85;;;2.60;93.90;;;;;;5003287;28;20013;-75
2021/03/19 07:51:22;;;;;;;9.27;4.15;;;2.70;93.80;;;;;;5008814;28;20040;-73
2021/03/19 07:53:58;;;;;;;10.55;3.95;;;2.80;93.60;;;;;;5009219;28;20038;-74
2021/03/19 07:56:34;;;;;;;10.20;4.25;;;2.90;93.50;;;;;;5013853;28;20025;-75
2021/03/19 07:59:12;;;;;;;9.63;4.72;;;3.00;93.10;;;;;;5030427;28;20378;-75
2021/03/19 08:01:53;;;;;;;9.05;4.78;;;3.10;93.10;;;;;;5011418;28;20033;-75
2021/03/19 08:04:33;;;;;;;7.32;3.70;;;3.20;92.90;;;;;;4992708;28;20034;-76
2021/03/19 08:07:17;;;;;;;7.82;3.47;;;3.30;92.80;;;;;;5011495;28;20491;-76
2021/03/19 08:10:05;;;;;;;4.88;2.47;;;3.40;92.70;;;;;;5013606;28;20050;-76
2021/03/19 08:12:48;;;;;;;10.45;3.70;;;3.50;92.50;;;;;;5001559;28;20030;-75
2021/03/19 08:15:32;;;;;;;7.10;3.65;;;3.60;92.20;;;;;;5009984;28;20521;-74
2021/03/19 08:18:19;;;;;;;10.18;2.90;;;3.70;91.70;;;;;;5012961;28;20037;-74
2021/03/19 08:21:12;;;;;;;9.32;2.78;;;3.80;91.00;;;;;;5024534;28;20505;-75
2021/03/19 08:23:59;;;;;;;7.53;2.28;;;3.90;91.10;;;;;;5013354;28;20061;-75
2021/03/19 08:27:02;;;;;;;5.72;2.47;;;4.00;90.70;;;;;;5013019;28;20453;-75
2021/03/19 08:30:04;;;;;;;7.75;2.28;;;4.10;90.60;;;;;;4997936;28;20037;-74
2021/03/19 08:33:02;;;;;;;4.45;1.73;;;4.30;90.50;;;;;;5006406;28;20030;-76
2021/03/19 08:35:50;;;;;;;4.53;1.50;;;4.40;89.20;;;;;;5027224;28;20041;-74
2021/03/19 08:38:23;;;;;;;3.85;2.25;;;4.50;88.50;;;;;;5014912;28;20119;-76
2021/03/19 08:40:53;;;;;;;3.55;1.27;;;4.50;85.80;;;;;;5017138;28;20030;-76
2021/03/19 08:43:23;;;;;;;4.03;1.30;;;4.60;85.80;;;;;;4994316;28;20059;-75
2021/03/19 08:46:02;;;;;;;3.67;1.15;;;4.80;85.20;;;;;;5007640;28;20108;-75
2021/03/19 08:48:28;;;;;;;2.78;0.82;;;4.90;85.50;;;;;;5010845;28;20022;-75
2021/03/19 08:50:54;;;;;;;3.75;1.00;;;5.00;84.60;;;;;;5005947;28;20029;-75
2021/03/19 08:53:22;;;;;;;3.35;0.80;;;5.10;82.60;;;;;;5003673;28;20060;-75
2021/03/19 08:55:51;;;;;;;3.75;1.00;;;5.20;82.50;;;;;;5001729;28;20532;-76
2021/03/19 08:58:28;;;;;;;2.28;0.60;;;5.30;82.00;;;;;;5004254;28;20033;-75
2021/03/19 09:01:00;;;;;;;1.83;0.47;;;5.40;81.90;;;;;;5009412;28;20083;-76
2021/03/19 09:03:41;;;;;;;2.78;0.40;;;5.50;78.30;;;;;;5009751;28;20026;-75
2021/03/19 09:06:27;;;;;;;1.20;0.30;;;5.60;77.40;;;;;;5009166;28;20044;-75
2021/03/19 09:09:04;;;;;;;2.55;0.40;;;5.60;72.00;;;;;;5004698;28;20104;-76
2021/03/19 09:12:00;;;;;;;3.33;0.55;;;5.60;70.20;;;;;;5004312;28;20084;-74
2021/03/19 09:14:36;;;;;;;3.75;0.45;;;5.50;69.80;;;;;;5009287;28;20037;-74
2021/03/19 09:17:02;;;;;;;3.00;0.50;;;5.60;69.10;;;;;;5006344;28;20022;-74
2021/03/19 09:19:43;;;;;;;2.55;0.52;;;5.60;68.60;;;;;;4988612;28;20124;-75
2021/03/19 09:22:43;;;;;;;2.70;1.40;;;5.70;68.80;;;;;;5008858;28;20040;-75
2021/03/19 09:25:11;;;;;;;4.10;0.60;;;5.70;69.70;;;;;;5007461;28;20065;-74
2021/03/19 09:27:59;;;;;;;4.35;0.68;;;5.80;69.50;;;;;;5007499;28;20026;-74
2021/03/19 09:30:52;;;;;;;3.67;0.73;;;5.90;70.30;;;;;;5005352;28;20145;-74
2021/03/19 09:34:03;;;;;;;3.97;0.90;;;6.10;68.30;;;;;;5005596;28;20394;-74
2021/03/19 09:37:03;;;;;;;4.20;0.73;;;6.00;67.80;;;;;;4999927;28;20037;-74
2021/03/19 09:40:07;;;;;;;2.25;0.70;;;6.10;68.50;;;;;;5003745;28;20022;-74
2021/03/19 09:42:43;;;;;;;2.20;0.90;;;6.20;67.50;;;;;;5004863;28;20510;-74
2021/03/19 09:45:11;;;;;;;3.63;0.90;;;6.20;67.40;;;;;;5010589;28;20030;-74
2021/03/19 09:47:49;;;;;;;5.68;0.85;;;6.20;68.00;;;;;;5006043;28;20033;-74
2021/03/19 09:50:18;;;;;;;5.82;1.00;;;6.30;67.50;;;;;;5006872;28;20053;-75
2021/03/19 09:52:57;;;;;;;3.00;0.98;;;6.30;66.30;;;;;;5008307;28;20084;-74
2021/03/19 09:55:26;;;;;;;3.55;0.90;;;6.30;65.90;;;;;;5010778;28;20038;-74
2021/03/19 09:57:52;;;;;;;4.07;1.08;;;6.40;65.30;;;;;;5006449;28;20498;-74
2021/03/19 10:00:27;;;;;;;5.13;1.00;;;6.40;65.50;;;;;;5007501;28;20033;-74
2021/03/19 10:03:06;;;;;;;2.85;0.85;;;6.40;65.30;;;;;;5007263;28;20029;-75
2021/03/19 10:05:37;;;;;;;3.92;1.05;;;6.40;65.80;;;;;;5010369;28;20045;-74
2021/03/19 10:08:03;;;;;;;3.40;1.10;;;6.50;66.10;;;;;;5006456;28;20177;-75
2021/03/19 10:10:38;;;;;;;2.50;0.82;;;6.70;66.40;;;;;;5001922;28;20042;-74
2021/03/19 10:13:17;;;;;;;3.15;1.00;;;6.80;66.30;;;;;;5007602;28;20394;-74
2021/03/19 10:15:45;;;;;;;4.40;1.13;;;6.90;65.20;;;;;;5010149;28;20490;-74
2021/03/19 10:18:38;;;;;;;2.78;0.90;;;6.90;65.10;;;;;;5007765;28;20038;-74
2021/03/19 10:21:09;;;;;;;3.47;0.85;;;7.00;64.50;;;;;;5003693;28;20025;-75
2021/03/19 10:23:39;;;;;;;2.50;0.90;;;7.00;63.20;;;;;;5007767;28;20030;-75
2021/03/19 10:26:09;;;;;;;2.53;0.80;;;7.00;62.60;;;;;;4998370;28;20026;-76
2021/03/19 10:28:37;;;;;;;2.00;0.70;;;6.90;62.30;;;;;;5009175;28;20033;-75
2021/03/19 10:31:12;;;;;;;4.38;1.27;;;7.00;62.60;;;;;;5011140;28;20478;-75
2021/03/19 10:34:02;;;;;;;2.67;0.73;;;7.10;63.00;;;;;;5010974;28;20405;-75
2021/03/19 10:36:43;;;;;;;3.13;1.15;;;7.20;63.00;;;;;;5007172;28;20435;-75
2021/03/19 10:39:53;;;;;;;3.13;0.80;;;7.40;63.00;;;;;;5011168;28;20477;-75
2021/03/19 10:42:33;;;;;;;3.60;0.70;;;7.40;63.70;;;;;;5008248;28;20041;-74
2021/03/19 10:45:43;;;;;;;2.00;0.80;;;7.60;62.70;;;;;;5014468;28;20049;-74
2021/03/19 10:48:15;;;;;;;2.92;0.70;;;7.50;61.90;;;;;;4952418;28;20031;-76
2021/03/19 10:50:55;;;;;;;4.55;0.90;;;7.50;61.80;;;;;;5006408;28;20120;-76
2021/03/19 10:53:31;;;;;;;5.45;1.00;;;7.50;62.10;;;;;;5013579;28;20515;-76
2021/03/19 10:56:02;;;;;;;3.47;0.90;;;7.40;61.60;;;;;;5010591;28;20026;-74
2021/03/19 10:58:36;;;;;;;4.38;0.60;;;7.40;62.40;;;;;;5008839;28;20030;-74
2021/03/19 11:01:30;;;;;;;4.13;0.85;;;7.50;62.60;;;;;;4995638;28;20561;-75
2021/03/19 11:03:57;;;;;;;3.50;1.30;;;7.70;63.00;;;;;;5010035;28;20061;-75
2021/03/19 11:06:37;;;;;;;2.85;0.90;;;7.80;61.30;;;;;;5011760;28;20018;-74
2021/03/19 11:09:21;;;;;;;3.25;1.00;;;7.80;60.80;;;;;;5008079;28;20050;-74
2021/03/19 11:11:51;;;;;;;3.08;1.08;;;7.80;61.00;;;;;;5001812;28;20072;-74
2021/03/19 11:14:20;;;;;;;3.22;1.08;;;7.80;60.80;;;;;;5008311;28;20069;-76
2021/03/19 11:16:51;;;;;;;2.75;1.00;;;7.90;60.60;;;;;;5007247;28;20022;-75
2021/03/19 11:19:28;;;;;;;4.05;1.60;;;7.90;60.50;;;;;;5010001;28;20486;-75
2021/03/19 11:22:05;;;;;;;3.05;0.90;;;8.00;60.70;;;;;;5009158;28;20045;-75
2021/03/19 11:24:34;;;;;;;3.92;1.35;;;8.10;61.00;;;;;;5012538;28;20050;-75
2021/03/19 11:27:04;;;;;;;2.75;1.02;;;8.20;61.30;;;;;;5009679;28;20057;-75
2021/03/19 11:29:33;;;;;;;3.85;1.02;;;8.30;60.40;;;;;;5011652;28;20367;-75
2021/03/19 11:32:10;;;;;;;3.85;1.08;;;8.30;60.30;;;;;;4998702;28;20113;-75
2021/03/19 11:34:45;;;;;;;6.40;1.25;;;8.30;58.70;;;;;;5012377;28;20046;-75
2021/03/19 11:37:19;;;;;;;4.55;1.40;;;8.20;58.50;;;;;;5010557;28;20037;-75
2021/03/19 11:39:58;;;;;;;4.85;1.38;;;8.20;59.60;;;;;;5006955;28;20025;-75
2021/03/19 11:42:34;;;;;;;4.40;1.30;;;8.30;60.00;;;;;;5009462;28;20054;-75
2021/03/19 11:45:07;;;;;;;4.95;1.10;;;8.30;60.30;;;;;;5003828;28;20056;-74
2021/03/19 11:47:36;;;;;;;4.15;1.52;;;8.30;59.40;;;;;;5008276;28;20544;-75
2021/03/19 11:50:38;;;;;;;2.63;1.50;;;8.40;59.20;;;;;;5005751;28;20034;-75
2021/03/19 11:53:08;;;;;;;4.88;1.10;;;8.40;59.00;;;;;;5009683;28;20034;-75
2021/03/19 11:55:42;;;;;;;3.63;0.70;;;8.50;58.20;;;;;;5005728;28;20030;-74
2021/03/19 11:58:10;;;;;;;3.60;0.80;;;8.60;56.70;;;;;;5007678;28;20041;-74
2021/03/19 12:00:38;;;;;;;5.80;0.90;;;8.70;57.20;;;;;;5006812;28;20025;-74
2021/03/19 12:03:34;;;;;;;2.85;0.95;;;8.80;56.10;;;;;;5009932;28;20022;-76
2021/03/19 12:06:02;;;;;;;2.55;1.08;;;8.70;55.10;;;;;;4993459;28;20490;-75
2021/03/19 12:08:32;;;;;;;5.85;1.55;;;8.60;55.70;;;;;;5009833;28;20060;-74
2021/03/19 12:11:00;;;;;;;4.53;1.00;;;8.60;56.40;;;;;;5003344;28;20497;-74
2021/03/19 12:13:26;;;;;;;2.33;0.75;;;8.80;57.10;;;;;;5009136;28;20044;-75
2021/03/19 12:15:52;;;;;;;4.20;1.00;;;8.90;56.00;;;;;;5007174;28;20422;-74
2021/03/19 12:18:22;;;;;;;4.30;1.02;;;8.90;56.10;;;;;;5011484;28;20026;-73
2021/03/19 12:20:48;;;;;;;3.38;0.75;;;9.10;56.90;;;;;;5007338;28;20135;-74
2021/03/19 12:23:14;;;;;;;3.05;1.00;;;9.20;55.60;;;;;;5009084;28;20026;-75
2021/03/19 12:25:41;;;;;;;2.92;0.90;;;9.10;54.40;;;;;;5010331;28;20104;-74
2021/03/19 12:28:10;;;;;;;2.95;0.70;;;9.10;54.00;;;;;;5009346;28;20061;-74
2021/03/19 12:30:36;;;;;;;3.80;0.70;;;8.90;54.20;;;;;;5008132;28;20018;-74
2021/03/19 12:33:03;;;;;;;8.38;1.48;;;8.80;54.60;;;;;;4993574;28;20033;-76
2021/03/19 12:35:29;;;;;;;4.05;0.80;;;8.80;55.30;;;;;;5009062;28;20041;-74
2021/03/19 12:37:57;;;;;;;2.75;0.77;;;9.10;55.10;;;;;;5009710;28;20097;-74
2021/03/19 12:40:24;;;;;;;3.47;0.70;;;9.20;54.30;;;;;;5013142;28;20462;-75
2021/03/19 12:42:50;;;;;;;2.75;0.70;;;9.00;53.20;;;;;;5009538;28;20351;-75
2021/03/19 12:45:18;;;;;;;3.88;0.70;;;8.90;53.10;;;;;;5009989;28;20034;-75
2021/03/19 12:47:44;;;;;;;2.78;0.70;;;8.80;53.50;;;;;;5007600;28;20018;-74
2021/03/19 12:50:10;;;;;;;1.23;0.45;;;8.90;54.10;;;;;;5012436;28;20099;-75
2021/03/19 12:52:36;;;;;;;1.27;0.45;;;9.00;53.00;;;;;;5007388;28;20109;-74
2021/03/19 12:55:02;;;;;;;2.17;0.60;;;9.00;51.30;;;;;;5007860;28;20574;-75
2021/03/19 12:57:28;;;;;;;1.63;0.50;;;9.00;51.50;;;;;;5011014;28;20028;-75
2021/03/19 12:59:53;;;;;;;2.72;0.50;;;9.10;52.30;;;;;;5009955;28;20105;-75
2021/03/19 13:02:19;;;;;;;1.25;0.40;;;9.20;51.00;;;;;;5012145;28;20077;-75
2021/03/19 13:04:44;;;;;;;0.70;0.30;;;9.20;51.00;;;;;;5008600;28;20056;-76
2021/03/19 13:07:10;;;;;;;2.35;0.50;;;9.20;49.90;;;;;;5008995;28;20075;-75
2021/03/19 13:09:36;;;;;;;0.60;0.20;;;9.30;50.40;;;;;;5005630;28;20042;-75
2021/03/19 13:12:04;;;;;;;2.13;0.30;;;9.30;49.70;;;;;;5010391;28;20029;-75
2021/03/19 13:14:30;;;;;;;2.85;0.57;;;9.40;49.70;;;;;;5004270;28;20034;-74
2021/03/19 13:16:58;;;;;;;3.00;0.43;;;9.30;49.60;;;;;;5006776;28;20026;-75
2021/03/19 13:19:24;;;;;;;1.48;0.47;;;9.30;48.80;;;;;;5008578;28;20152;-74
2021/03/19 13:21:50;;;;;;;1.58;0.63;;;9.20;49.30;;;;;;5010783;28;20104;-75
2021/03/19 13:24:16;;;;;;;1.73;0.60;;;9.20;49.80;;;;;;5003676;28;20034;-75
2021/03/19 13:26:41;;;;;;;1.70;0.40;;;9.30;50.20;;;;;;5011753;28;20544;-74
2021/03/19 13:29:07;;;;;;;3.05;0.50;;;9.30;50.20;;;;;;5008642;28;21847;-74
2021/03/19 13:31:34;;;;;;;2.00;0.50;;;9.40;50.50;;;;;;5009283;28;20029;-75